Time;durP1;ratioP1;P1;durP2;ratioP2;P2;SDS_P1;SDS_P2;PMS_P1;PMS_P2;Temp;Humidity;BMP_temperature;BMP_pressure;BME280_temperature;BME280_humidity;BME280_pressure;Samples;Min_cycle;Max_cycle;Signal;HPM_P1;HPM_P2
2021/12/29 09:46:48;;;;;;;36.90;21.63;;;;;;;;;;10567922;27;1391148;-68
2021/12/29 09:51:50;;;;;;;34.90;18.63;;;;;;;;;;10539715;28;20139;-69
2021/12/29 09:56:50;;;;;;;46.95;17.70;;;;;;;;;;10506399;28;20031;-68
2021/12/29 10:01:51;;;;;;;29.63;14.90;;;;;;;;;;10490347;28;20035;-69
2021/12/29 10:06:51;;;;;;;25.63;13.55;;;;;;;;;;10487652;28;20134;-69
2021/12/29 10:11:53;;;;;;;27.40;12.23;;;;;;;;;;10476642;28;20028;-68
2021/12/29 10:16:54;;;;;;;17.55;9.90;;;;;;;;;;10491085;28;20827;-68
2021/12/29 10:21:56;;;;;;;16.73;8.10;;;;;;;;;;10487792;28;20845;-69
2021/12/29 10:26:57;;;;;;;20.88;8.05;;;;;;;;;;10548470;28;20028;-69
2021/12/29 10:32:03;;;;;;;19.42;7.55;;;;;;;;;;10567213;28;20502;-70
2021/12/29 10:37:09;;;;;;;12.85;6.72;;;;;;;;;;10554028;28;20366;-68
2021/12/29 10:48:30;;;;;;;14.10;7.43;;;;;;;;;;10341947;28;20155;-69
2021/12/29 10:53:32;;;;;;;10.50;6.35;;;;;;;;;;10418248;28;20161;-69
2021/12/29 10:58:35;;;;;;;11.80;5.40;;;;;;;;;;10385846;28;20041;-66
2021/12/29 11:03:46;;;;;;;7.57;4.75;;;;;;;;;;10394937;28;20033;-67
2021/12/29 11:32:24;;;;;;;8.43;3.65;;;;;;;;;;10460673;27;1665445;-68
2021/12/29 11:37:25;;;;;;;8.13;3.88;;;;;;;;;;10506476;28;20044;-68
2021/12/29 11:42:26;;;;;;;15.13;3.10;;;;;;;;;;10513658;28;20070;-67
2021/12/29 12:28:49;;;;;;;9.90;3.63;;;;;;;;;;10682243;27;1413550;-68
2021/12/29 12:33:50;;;;;;;13.55;4.47;;;;;;;;;;10597403;28;20035;-70
2021/12/29 12:38:51;;;;;;;11.27;4.10;;;;;;;;;;10614894;28;20035;-68
2021/12/29 12:44:01;;;;;;;17.27;4.05;;;;;;;;;;10607902;28;20039;-66
2021/12/29 12:49:39;;;;;;;17.67;4.22;;;;;;;;;;10565721;28;20073;-68
2021/12/29 12:54:58;;;;;;;12.60;4.78;;;;;;;;;;10566634;28;20381;-67
2021/12/29 13:00:18;;;;;;;9.45;3.85;;;;;;;;;;10575930;28;20524;-68
2021/12/29 13:05:37;;;;;;;8.07;4.57;;;;;;;;;;10594064;28;20035;-69
2021/12/29 13:10:42;;;;;;;17.15;6.03;;;;;;;;;;10591299;28;20032;-70
2021/12/29 13:16:08;;;;;;;11.45;5.93;;;;;;;;;;10614644;28;20035;-69
2021/12/29 13:21:10;;;;;;;17.35;7.20;;;;;;;;;;10587997;28;20047;-67
2021/12/29 13:26:12;;;;;;;17.38;7.53;;;;;;;;;;10600956;28;20039;-70
2021/12/29 13:31:35;;;;;;;12.02;5.65;;;;;;;;;;10558713;27;20094;-71
2021/12/29 13:36:36;;;;;;;13.77;5.57;;;;;;;;;;10597325;28;20143;-69
2021/12/29 13:41:37;;;;;;;14.18;5.07;;;;;;;;;;10552121;28;20110;-66
2021/12/29 14:42:46;;;;;;;3.22;2.63;;;;;;;;;;10616733;27;20609;-67
2021/12/29 14:47:49;;;;;;;9.98;2.47;;;;;;;;;;10540040;28;20036;-69
2021/12/29 14:52:50;;;;;;;5.68;2.53;;;;;;;;;;10549744;28;20032;-68
2021/12/29 14:57:51;;;;;;;7.45;2.42;;;;;;;;;;10509677;28;20028;-69
2021/12/29 15:03:01;;;;;;;14.05;2.95;;;;;;;;;;10523889;28;20040;-70
2021/12/29 15:08:02;;;;;;;5.70;2.60;;;;;;;;;;10525394;28;20565;-68
2021/12/29 15:13:04;;;;;;;3.58;2.20;;;;;;;;;;10535242;28;20031;-69
2021/12/29 15:18:12;;;;;;;9.60;2.20;;;;;;;;;;10546197;28;20039;-68
2021/12/29 15:23:15;;;;;;;12.30;2.80;;;;;;;;;;10556066;28;20526;-69
2021/12/29 15:28:16;;;;;;;2.85;2.08;;;;;;;;;;10461305;28;20043;-70
2021/12/29 15:45:20;;;;;;;68.70;13.77;;;;;;;;;;10071305;29;20119;-71
2021/12/29 15:50:23;;;;;;;50.65;11.98;;;;;;;;;;10416654;28;20044;-69
2021/12/29 15:55:25;;;;;;;48.65;10.63;;;;;;;;;;10483865;28;20028;-67
2021/12/29 16:00:28;;;;;;;46.20;10.25;;;;;;;;;;10500514;28;20037;-68
2021/12/29 16:05:30;;;;;;;36.92;12.73;;;;;;;;;;10471450;28;20514;-67
2021/12/29 16:10:33;;;;;;;35.28;9.45;;;;;;;;;;10481323;28;20437;-67
2021/12/29 16:15:34;;;;;;;28.23;7.53;;;;;;;;;;10498936;28;20535;-67
2021/12/29 16:20:36;;;;;;;27.13;6.88;;;;;;;;;;10496149;28;20040;-67
2021/12/29 16:25:37;;;;;;;31.65;6.40;;;;;;;;;;10488944;28;20126;-67
2021/12/29 16:30:38;;;;;;;15.70;5.55;;;;;;;;;;10487219;28;20036;-66
2021/12/29 16:35:40;;;;;;;15.95;5.10;;;;;;;;;;10521618;28;20032;-64
2021/12/29 16:40:40;;;;;;;19.80;5.63;;;;;;;;;;10454286;28;20120;-64
2021/12/29 17:15:41;;;;;;;29.63;7.40;;;;;;;;;;10173148;27;1441302;-66
2021/12/29 17:20:42;;;;;;;30.95;7.28;;;;;;;;;;10462728;28;20561;-66
2021/12/29 17:25:44;;;;;;;33.00;6.35;;;;;;;;;;10471658;28;20031;-70
2021/12/29 17:30:44;;;;;;;28.88;6.95;;;;;;;;;;10460137;28;20036;-67
2021/12/29 17:35:45;;;;;;;45.42;10.30;;;;;;;;;;10477300;28;20040;-67
2021/12/29 17:40:46;;;;;;;34.15;6.78;;;;;;;;;;10475059;28;20029;-67
2021/12/29 17:45:47;;;;;;;37.97;7.45;;;;;;;;;;10488653;28;20698;-67
2021/12/29 17:50:48;;;;;;;30.42;7.07;;;;;;;;;;10453690;28;20049;-65
2021/12/29 17:55:49;;;;;;;26.85;7.38;;;;;;;;;;10472301;28;20890;-70
2021/12/29 18:00:50;;;;;;;26.02;6.25;;;;;;;;;;10453892;28;20053;-69
2021/12/29 18:05:51;;;;;;;22.90;6.25;;;;;;;;;;10486271;28;20146;-70
2021/12/29 18:16:54;;;;;;;13.02;4.88;;;;;;;;;;10237513;22;20203;-71
2021/12/29 18:22:01;;;;;;;16.90;4.67;;;;;;;;;;10559560;22;20112;-69
2021/12/29 18:32:39;;;;;;;13.00;4.20;;;;;;;;;;10343012;23;20413;-68
2021/12/29 18:37:41;;;;;;;44.58;8.85;;;;;;;;;;10215116;29;20090;-68
2021/12/29 18:42:42;;;;;;;34.75;6.55;;;;;;;;;;10240041;29;20067;-68
2021/12/29 18:47:43;;;;;;;29.95;8.70;;;;;;;;;;10238742;29;20106;-68
2021/12/29 18:52:44;;;;;;;32.13;5.43;;;;;;;;;;10239676;29;20031;-67
2021/12/29 18:57:46;;;;;;;17.05;4.88;;;;;;;;;;10243105;29;20049;-69
2021/12/29 19:02:47;;;;;;;16.85;5.13;;;;;;;;;;10239252;29;20020;-67
2021/12/29 19:07:49;;;;;;;17.38;4.35;;;;;;;;;;10222933;29;20514;-70
2021/12/29 19:12:50;;;;;;;13.38;4.00;;;;;;;;;;10220801;29;20467;-68
2021/12/29 19:17:51;;;;;;;8.88;3.13;;;;;;;;;;10244198;28;20391;-69
2021/12/29 19:22:52;;;;;;;19.60;4.05;;;;;;;;;;10235982;28;20024;-72
2021/12/29 19:27:52;;;;;;;13.38;3.72;;;;;;;;;;10230318;29;20075;-71
2021/12/29 19:32:53;;;;;;;20.95;3.40;;;;;;;;;;10230952;29;20040;-72
2021/12/29 19:37:54;;;;;;;21.48;3.60;;;;;;;;;;10205759;28;20123;-72
2021/12/29 19:42:57;;;;;;;16.27;3.03;;;;;;;;;;10226008;28;20035;-71
2021/12/29 19:47:59;;;;;;;11.77;2.70;;;;;;;;;;10229297;29;20042;-72
2021/12/29 19:53:03;;;;;;;15.70;3.10;;;;;;;;;;10229407;28;20461;-72
2021/12/29 19:58:05;;;;;;;10.48;2.47;;;;;;;;;;10214453;29;20034;-73
2021/12/29 20:03:06;;;;;;;8.27;2.42;;;;;;;;;;10216724;29;20043;-71
2021/12/29 20:08:13;;;;;;;24.33;2.63;;;;;;;;;;10220341;29;20108;-71
2021/12/29 20:13:14;;;;;;;7.53;2.05;;;;;;;;;;10235880;28;20031;-72
2021/12/29 20:24:17;;;;;;;8.32;1.83;;;;;;;;;;9987544;29;20046;-71
2021/12/29 20:29:19;;;;;;;13.40;2.08;;;;;;;;;;10188400;28;20130;-73
2021/12/29 20:34:20;;;;;;;9.80;1.80;;;;;;;;;;10217222;29;20067;-70
2021/12/29 20:39:21;;;;;;;9.38;2.22;;;;;;;;;;10218862;29;20545;-70
2021/12/29 20:44:21;;;;;;;19.25;2.50;;;;;;;;;;10219583;29;20442;-71
2021/12/29 20:49:22;;;;;;;6.88;2.10;;;;;;;;;;10524560;23;21029;-70
2021/12/29 20:54:23;;;;;;;11.55;2.90;;;;;;;;;;10213252;29;20478;-71
2021/12/29 20:59:25;;;;;;;16.95;2.80;;;;;;;;;;10241135;28;20448;-71
2021/12/29 21:04:25;;;;;;;16.50;2.75;;;;;;;;;;10228709;29;20126;-72
2021/12/29 21:09:26;;;;;;;11.23;2.35;;;;;;;;;;10221645;29;20122;-72
2021/12/29 21:14:27;;;;;;;10.25;2.13;;;;;;;;;;10232990;29;20039;-72
2021/12/29 21:19:30;;;;;;;15.00;2.50;;;;;;;;;;10213364;23;20126;-71
2021/12/29 21:30:34;;;;;;;8.52;2.05;;;;;;;;;;10231389;29;20043;-72
2021/12/29 21:35:36;;;;;;;2.20;1.48;;;;;;;;;;10227366;29;20067;-73
2021/12/29 21:40:36;;;;;;;8.23;2.03;;;;;;;;;;10218715;29;20038;-74
2021/12/29 21:45:37;;;;;;;8.93;1.73;;;;;;;;;;10233875;28;20118;-74
2021/12/29 21:50:39;;;;;;;4.60;1.40;;;;;;;;;;10217667;29;20039;-73
2021/12/29 21:55:40;;;;;;;8.55;1.92;;;;;;;;;;10218271;29;20041;-72
2021/12/29 22:00:42;;;;;;;6.72;1.75;;;;;;;;;;10221622;29;20038;-72
2021/12/29 22:05:43;;;;;;;4.57;1.65;;;;;;;;;;10204505;29;20050;-72
2021/12/29 22:10:45;;;;;;;4.85;1.15;;;;;;;;;;10221703;29;20031;-73
2021/12/29 22:15:48;;;;;;;6.55;1.30;;;;;;;;;;10224497;29;20125;-74
2021/12/29 22:20:49;;;;;;;1.38;1.17;;;;;;;;;;10226840;29;20134;-74
2021/12/29 22:31:51;;;;;;;5.50;1.33;;;;;;;;;;10123524;29;20051;-77
2021/12/29 22:36:53;;;;;;;16.00;1.58;;;;;;;;;;10204067;29;20057;-77
2021/12/29 22:41:54;;;;;;;2.88;1.40;;;;;;;;;;10243925;28;20126;-77
2021/12/29 22:46:54;;;;;;;6.28;1.55;;;;;;;;;;10255043;29;20122;-76
2021/12/29 22:51:55;;;;;;;7.88;1.52;;;;;;;;;;10238324;29;21372;-77
2021/12/29 22:56:55;;;;;;;8.48;1.98;;;;;;;;;;10215779;29;20039;-74
2021/12/29 23:01:57;;;;;;;15.80;2.47;;;;;;;;;;10248731;29;20391;-76
2021/12/29 23:06:57;;;;;;;31.05;3.20;;;;;;;;;;10236862;28;20043;-76
2021/12/29 23:12:26;;;;;;;22.17;2.78;;;;;;;;;;10218759;29;20035;-73
2021/12/29 23:17:26;;;;;;;18.73;1.85;;;;;;;;;;10220485;29;20059;-73
2021/12/29 23:22:32;;;;;;;26.38;2.70;;;;;;;;;;10220384;29;20078;-72
